Robinson, PA

3:46 PM EDT on May 06, 2015 (GMT -0400)
New Florence | | Change Station
CLOSE
Current Station
Personal Weather Station
Location: New Florence, PA
Elevation: 1188 ft
Nearby Weather Stations

Elev 1188 ft 40.37 °N, 79.06 °W | Updated 2 minutes ago

Mostly Cloudy
Mostly Cloudy
82.8 °F
Feels Like 82 °F
N
1.7
Wind Variable Wind from SW

Today
High -- | Low -- °F
--% Chance of Precip.
Yesterday
High -- | Low -- °F
Precip. -- in
6:10 AM 8:16 PM
Waning Gibbous, 93% visible
Pressure 30.19 in
Visibility 10.0 miles
Clouds Few 6000 ft
Scattered Clouds 7000 ft
Scattered Clouds 9000 ft
Heat Index 82 °F
Dew Point 57 °F
Humidity 42%
Rainfall 0.00 in
Snow Depth Not available.
UV 7 out of 12
Pollen 5.70 out of 12
Air Quality Not available.
Flu Activity Sporadic
METAR KIDI 061915Z AUTO 27011KT 10SM FEW060 SCT070 SCT090 27/14 A3019 RMK A01

More Conditions Fewer Conditions

Pressure 30.19 in
Visibility 10.0 miles
Clouds Few 6000 ft
Scattered Clouds 7000 ft
Scattered Clouds 9000 ft
Heat Index 82 °F
Dew Point 57 °F
Humidity 42%
Rainfall 0.00 in
Snow Depth Not available.
UV 7 out of 12
Pollen 5.70 out of 12
Air Quality Not available.
Flu Activity Sporadic
METAR KIDI 061915Z AUTO 27011KT 10SM FEW060 SCT070 SCT090 27/14 A3019 RMK A01

More Conditions Fewer Conditions

10-Day Weather Forecast

Almanac

Astronomy

May. 06, 2015 Rise Set
Actual Time
Civil Twilight
Nautical Twilight
Astronomical Twilight
Moon
Length of Visible Light
Length of Day
Tomorrow will be .
, % of the Moon is Illuminated

Today's Extremes

State Highs State Lows

Community

WunderPhotos

Upload Photos

1,819,003 photos uploaded!

WunderBlogs® & News

Nearby

Air Quality

  Air Quality AQ Index Pollutant
Not available.

Snow Depth

Station Depth Elevation

Earthquake Activity

City Distance Mag. Time & Date
Minimum magnitude displayed is 2.5.

Coastal Water Temperatures

Place Temperature

Stations

Nearby Weather Stations

Station Location Temp. Windchill Dew Point Humidity Wind Precip. Elev Updated Type